Flight Track Log - Related Links

Times and Time Zones

All times are in EDT time to prevent confusion due to time zone crossing. See the N508QS flight status page for this flight to view local times or setup timezone preferences in your user account.

Time Position Orientation Groundspeed Altitude Reporting Facility
EDT Latitude Longitude Course Direction KTS MPH feet Rate Location/Type
Sun 07:35:18 AM 40.0006 -82.8822 91° East 165 190 1,400  Level Indianapolis Center
Sun 07:35:57 AM 40.0000 -82.8417 91° East 200 230 3,800 4,000 Climbing Indianapolis Center
Sun 07:36:00 AM 39.9989 -82.8331 100° East 191 220 4,200 4,033 Climbing Indianapolis Center
Sun 07:36:58 AM 39.9956 -82.7544 93° East 235 270 7,900 3,479 Climbing Indianapolis Center
Sun 07:37:59 AM 39.9903 -82.6472 94° East 285 328 11,100 2,902 Climbing Indianapolis Center
Sun 07:39:00 AM 39.9869 -82.5139 92° East 354 407 13,800 3,049 Climbing Indianapolis Center
Sun 07:40:01 AM 40.0078 -82.3700 79° East 399 459 17,300 3,197 Climbing Indianapolis Center
Sun 07:41:02 AM 40.0303 -82.2197 79° East 416 479 20,300 2,902 Climbing Indianapolis Center
Sun 07:42:03 AM 40.0536 -82.0625 79° East 438 504 23,200 3,049 Climbing Indianapolis Center
Sun 07:43:04 AM 40.0814 -81.8647 80° East 461 531 26,500 2,754 Climbing Indianapolis Center
Sun 07:44:05 AM 40.1064 -81.7000 79° East 477 549 28,800 2,262 Climbing Indianapolis Center
Sun 07:45:06 AM 40.1311 -81.5194 80° East 495 570 31,100 2,754 Climbing Indianapolis Center
Sun 07:46:07 AM 40.1567 -81.3344 80° East 508 585 34,400 3,049 Climbing Indianapolis Center
Sun 07:47:08 AM 40.1808 -81.1564 80° East 498 573 37,300 2,656 Climbing Indianapolis Center
Sun 07:48:09 AM 40.2042 -80.9808 80° East 492 566 39,800 1,835 Climbing Indianapolis Center
Sun 07:49:09 AM 40.2300 -80.7914 80° East 484 557 41,000 595 Climbing Cleveland Center
Sun 07:50:10 AM 40.2769 -80.6231 70° East 500 575 41,000  Level Cleveland Center
Sun 07:51:11 AM 40.3400 -80.4658 62° Northeast 490 564 41,000  Level Cleveland Center
Sun 07:52:12 AM 40.3969 -80.3231 62° Northeast 485 558 41,000  Level Cleveland Center
Sun 07:53:12 AM 40.4544 -80.1639 65° Northeast 484 557 41,000  Level Cleveland Center
Sun 07:54:13 AM 40.5175 -80.0069 62° Northeast 491 565 41,000  Level Cleveland Center
Sun 07:55:14 AM 40.5903 -79.8181 63° Northeast 494 568 41,000  Level Cleveland Center
Sun 07:56:15 AM 40.6517 -79.6569 63° Northeast 494 568 41,000  Level Cleveland Center
Sun 07:57:16 AM 40.7133 -79.4942 63° Northeast 497 572 41,000  Level Cleveland Center
Sun 07:58:17 AM 40.7750 -79.3328 63° Northeast 496 571 41,000  Level Cleveland Center
Sun 07:59:18 AM 40.8353 -79.1706 64° Northeast 494 568 41,000  Level Cleveland Center
Sun 08:00:19 AM 40.8953 -79.0092 64° Northeast 492 566 41,000  Level Cleveland Center
Sun 08:01:20 AM 40.9561 -78.8497 63° Northeast 487 560 41,000  Level Cleveland Center
Sun 08:02:21 AM 41.0167 -78.6856 64° Northeast 494 568 41,000  Level Cleveland Center
Sun 08:03:22 AM 41.0769 -78.5242 64° Northeast 492 566 41,000  Level Cleveland Center
Sun 08:04:24 AM 41.1364 -78.3589 64° Northeast 495 570 41,000  Level Cleveland Center
Sun 08:05:26 AM 41.2006 -78.1811 64° Northeast 516 594 41,000  Level New York Center
Sun 08:06:26 AM 41.2544 -78.0158 67° East 493 567 41,000  Level New York Center
Sun 08:07:26 AM 41.3083 -77.8475 67° East 488 562 41,000 -100 Level New York Center
Sun 08:08:26 AM 41.3619 -77.6789 67° East 488 562 40,800 -950 Descending New York Center
Sun 08:09:26 AM 41.4131 -77.5181 67° East 482 555 39,100 -1,800 Descending New York Center
Sun 08:10:26 AM 41.4636 -77.3572 67° East 477 549 37,200 -1,850 Descending New York Center
Sun 08:11:26 AM 41.5144 -77.1903 68° East 477 549 35,400 -1,800 Descending New York Center
Sun 08:12:26 AM 41.5672 -77.0206 67° East 488 562 33,600 -1,800 Descending New York Center
Sun 08:13:26 AM 41.6200 -76.8506 67° East 488 562 31,800 -1,832 Descending New York Center
Sun 08:15:36 AM 41.7317 -76.4839 68° East 489 563 27,800 -1,822 Descending Cleveland Center
Sun 08:16:37 AM 41.7806 -76.3208 68° East 478 550 26,000 -1,805 Descending Cleveland Center
Sun 08:17:39 AM 41.8378 -76.1381 67° East 466 536 24,100 -984 Descending Boston Center
Sun 08:18:39 AM 41.8844 -75.9764 69° East 466 536 24,000 -50 Descending Boston Center
Sun 08:19:39 AM 41.9311 -75.8142 69° East 466 536 24,000  Level Boston Center
Sun 08:20:40 AM 41.9797 -75.6519 68° East 466 536 24,000  Level Boston Center
Sun 08:21:41 AM 42.0258 -75.4922 69° East 466 536 24,000 -202 Level Boston Center
Sun 08:22:39 AM 42.0717 -75.3294 69° East 466 536 23,600 -712 Descending Boston Center
Sun 08:23:39 AM 42.1072 -75.1631 74° East 466 536 22,600 -984 Descending Boston Center
Sun 08:24:41 AM 42.0772 -75.0219 106° East 434 499 21,600 -1,500 Descending Boston Center
Sun 08:25:39 AM 42.0311 -74.8439 109° East 434 499 19,600 -1,932 Descending Boston Center
Sun 08:26:39 AM 41.9903 -74.6969 110° East 428 493 17,800 -1,736 Descending Boston Center
Sun 08:27:40 AM 41.9322 -74.5667 121° Southeast 417 480 16,100 -2,083 Descending Boston Center
Sun 08:28:40 AM 41.8550 -74.4636 135° Southeast 400 460 13,600 -2,218 Descending Boston Center
Sun 08:29:39 AM 41.7858 -74.3694 135° Southeast 374 430 11,700 -1,765 Descending Boston Center
Sun 08:30:39 AM 41.7247 -74.2814 133° Southeast 341 392 10,100 -1,525 Descending Boston Center
Sun 08:31:41 AM 41.6636 -74.1992 135° Southeast 315 362 8,600 -1,350 Descending Boston Center
Sun 08:32:39 AM 41.6125 -74.1283 134° Southeast 298 343 7,400 -914 Descending Boston Center
Sun 08:33:26 AM 41.5667 -74.0667 135° Southeast 289 333 7,000 -535 Descending New York TRACON
Sun 08:34:20 AM 41.5167 -73.9833 129° Southeast 287 330 6,500 -889 Descending New York TRACON
Sun 08:35:14 AM 41.4667 -73.9167 135° Southeast 282 325 5,400 -1,211 Descending New York TRACON
Sun 08:36:14 AM 41.4000 -73.8500 143° Southeast 274 315 4,200 -650 Descending New York TRACON
Sun 08:37:14 AM 41.3500 -73.8000 143° Southeast 273 314 4,100 -300 Descending New York TRACON
Sun 08:38:14 AM 41.2833 -73.7333 143° Southeast 273 314 3,600 -500 Descending New York TRACON
Sun 08:39:14 AM 41.2167 -73.6833 151° Southeast 264 304 3,100 -300 Descending New York TRACON
Sun 08:40:14 AM 41.1500 -73.6333 151° Southeast 268 308 3,000 -50 Descending New York TRACON
Sun 08:41:14 AM 41.1000 -73.6167 166° South 241 277 3,000  Level New York TRACON
Sun 08:42:14 AM 41.0333 -73.5833 159° South 211 243 3,000 -211 Level New York TRACON
Sun 08:43:08 AM 41.0000 -73.6167 217° Southwest 176 203 2,600 -684 Descending New York TRACON
Sun 08:44:08 AM 41.0000 -73.6667 270° West 160 184 1,700 -850 Descending New York TRACON
Sun 08:45:08 AM 41.0333 -73.6833 339° North 135 155 900 -800 Descending New York TRACON
Sun 08:47:00 AM 41.0667 -73.7000 317° Northwest  Level FlightAware Approximate

Login

Don't have an account? Register now (free) for customized features, flight alerts, and more!